Time;durP1;ratioP1;P1;durP2;ratioP2;P2;SDS_P1;SDS_P2;PMS_P1;PMS_P2;Temp;Humidity;BMP_temperature;BMP_pressure;BME280_temperature;BME280_humidity;BME280_pressure;Samples;Min_cycle;Max_cycle;Signal;HPM_P1;HPM_P2
2023/04/21 00:00:50;;;;;;;74.73;37.30;;;7.50;99.90;;;;;;5010730;28;20467;-74
2023/04/21 00:03:19;;;;;;;67.23;35.87;;;7.50;99.90;;;;;;5009708;28;20541;-75
2023/04/21 00:05:48;;;;;;;69.77;38.07;;;7.50;99.90;;;;;;5010476;28;21044;-74
2023/04/21 00:08:14;;;;;;;86.13;36.50;;;7.50;99.90;;;;;;5010512;28;20501;-75
2023/04/21 00:10:41;;;;;;;71.83;36.03;;;7.50;99.90;;;;;;5010750;28;20494;-74
2023/04/21 00:13:08;;;;;;;65.30;35.57;;;7.50;99.90;;;;;;5009315;28;20513;-74
2023/04/21 00:15:35;;;;;;;64.63;35.00;;;7.50;99.90;;;;;;5010427;28;20460;-74
2023/04/21 00:18:02;;;;;;;71.60;35.80;;;7.50;99.90;;;;;;5010220;28;20467;-74
2023/04/21 00:20:29;;;;;;;66.30;34.47;;;7.50;99.90;;;;;;5007834;28;20468;-74
2023/04/21 00:22:58;;;;;;;72.70;35.13;;;7.60;99.90;;;;;;5005600;28;20467;-74
2023/04/21 00:25:25;;;;;;;65.37;35.37;;;7.60;99.90;;;;;;5009043;28;20459;-74
2023/04/21 00:27:52;;;;;;;66.20;36.20;;;7.60;99.90;;;;;;5012121;28;20931;-74
2023/04/21 00:30:19;;;;;;;62.40;34.43;;;7.60;99.90;;;;;;5011294;28;20486;-74
2023/04/21 00:32:45;;;;;;;70.10;34.93;;;7.60;99.90;;;;;;5014147;28;20525;-74
2023/04/21 00:35:12;;;;;;;70.17;36.47;;;7.60;99.90;;;;;;5013959;28;20513;-75
2023/04/21 00:37:39;;;;;;;67.73;34.83;;;7.70;99.90;;;;;;5014263;28;20462;-74
2023/04/21 00:40:09;;;;;;;71.57;35.40;;;7.70;99.90;;;;;;5014320;28;20490;-74
2023/04/21 00:42:35;;;;;;;66.43;35.33;;;7.70;99.90;;;;;;5013495;28;20494;-75
2023/04/21 00:45:02;;;;;;;69.90;35.30;;;7.70;99.90;;;;;;5012640;28;20459;-75
2023/04/21 00:47:29;;;;;;;59.47;32.57;;;7.70;99.90;;;;;;5013883;28;20841;-74
2023/04/21 00:49:57;;;;;;;64.97;35.97;;;7.70;99.90;;;;;;5013870;28;20502;-74
2023/04/21 00:52:24;;;;;;;65.43;32.80;;;7.70;99.90;;;;;;5013937;28;20451;-74
2023/04/21 00:54:51;;;;;;;63.20;33.77;;;7.70;99.90;;;;;;5012956;28;20973;-74
2023/04/21 00:57:20;;;;;;;65.00;35.27;;;7.80;99.90;;;;;;5009355;28;20906;-74
2023/04/21 00:59:46;;;;;;;59.57;33.53;;;7.80;99.90;;;;;;5009641;28;20529;-74
2023/04/21 01:02:14;;;;;;;63.93;34.40;;;7.80;99.90;;;;;;5013746;28;20884;-74
2023/04/21 01:04:41;;;;;;;67.30;34.33;;;7.80;99.90;;;;;;5013521;28;20886;-74
2023/04/21 01:07:08;;;;;;;60.10;33.80;;;7.80;99.90;;;;;;5013685;28;20939;-74
2023/04/21 01:09:35;;;;;;;65.67;34.60;;;7.80;99.90;;;;;;5013059;28;20479;-74
2023/04/21 01:12:03;;;;;;;68.53;34.87;;;7.80;99.90;;;;;;5013804;28;20505;-74
2023/04/21 01:14:31;;;;;;;66.73;35.63;;;7.80;99.90;;;;;;5010540;28;20459;-74
2023/04/21 01:16:58;;;;;;;65.90;34.10;;;7.80;99.90;;;;;;5008111;28;20823;-74
2023/04/21 01:19:26;;;;;;;61.60;33.97;;;7.80;99.90;;;;;;5011889;28;20522;-74
2023/04/21 01:21:57;;;;;;;69.00;35.10;;;7.80;99.90;;;;;;5013578;28;20452;-74
2023/04/21 01:24:24;;;;;;;68.77;35.47;;;7.80;99.90;;;;;;5012955;28;20942;-74
2023/04/21 01:26:50;;;;;;;67.17;34.93;;;7.80;99.90;;;;;;5013053;28;20680;-74
2023/04/21 01:29:17;;;;;;;64.87;34.33;;;7.80;99.90;;;;;;5013181;28;20479;-74
2023/04/21 01:31:46;;;;;;;54.87;31.50;;;7.90;99.90;;;;;;5013229;28;20490;-74
2023/04/21 01:34:13;;;;;;;61.57;33.70;;;7.90;99.90;;;;;;5010430;28;20546;-74
2023/04/21 01:36:39;;;;;;;60.80;32.47;;;7.90;99.90;;;;;;5003287;28;20517;-74
2023/04/21 01:39:07;;;;;;;68.00;34.80;;;7.80;99.90;;;;;;5012850;28;20533;-74
2023/04/21 01:41:34;;;;;;;64.03;32.47;;;7.90;99.90;;;;;;5008872;28;20455;-74
2023/04/21 01:44:01;;;;;;;66.60;33.30;;;7.80;99.90;;;;;;5009430;28;20971;-74
2023/04/21 01:46:27;;;;;;;60.50;32.13;;;7.80;99.90;;;;;;5007503;28;20529;-74
2023/04/21 01:48:54;;;;;;;59.00;32.07;;;7.80;99.90;;;;;;5011534;28;20487;-74
2023/04/21 01:51:21;;;;;;;60.70;32.13;;;7.80;99.90;;;;;;5012580;28;20490;-74
2023/04/21 01:53:48;;;;;;;62.53;33.53;;;7.80;99.90;;;;;;5008002;28;20456;-74
2023/04/21 01:56:16;;;;;;;64.03;33.97;;;7.80;99.90;;;;;;5009754;28;20459;-74
2023/04/21 01:58:42;;;;;;;66.80;34.83;;;7.80;99.90;;;;;;5012140;28;20474;-75
2023/04/21 02:01:09;;;;;;;60.07;33.50;;;7.70;99.90;;;;;;5005302;28;20455;-74
2023/04/21 02:03:36;;;;;;;71.10;35.30;;;7.60;99.90;;;;;;5011884;28;21315;-74
2023/04/21 02:06:02;;;;;;;65.90;35.40;;;7.60;99.90;;;;;;5012710;28;20451;-74
2023/04/21 02:08:29;;;;;;;64.23;33.30;;;7.60;99.90;;;;;;5011539;28;20463;-74
2023/04/21 02:10:56;;;;;;;58.93;33.77;;;7.60;99.90;;;;;;5012724;28;20482;-74
2023/04/21 02:13:24;;;;;;;65.70;34.80;;;7.60;99.90;;;;;;5010586;28;20455;-74
2023/04/21 02:15:51;;;;;;;72.50;36.63;;;7.50;99.90;;;;;;5005734;28;20463;-74
2023/04/21 02:18:19;;;;;;;69.57;35.20;;;7.50;99.90;;;;;;5012107;28;20459;-74
2023/04/21 02:20:45;;;;;;;71.30;37.40;;;7.50;99.90;;;;;;5012565;28;20546;-73
2023/04/21 02:23:12;;;;;;;75.20;36.83;;;7.50;99.90;;;;;;5012570;28;20509;-74
2023/04/21 02:25:38;;;;;;;73.60;36.90;;;7.40;99.90;;;;;;5012235;28;20456;-74
2023/04/21 02:28:05;;;;;;;76.40;38.73;;;7.40;99.90;;;;;;5008765;28;20462;-74
2023/04/21 02:30:34;;;;;;;85.77;38.23;;;7.40;99.90;;;;;;5011289;28;20491;-74
2023/04/21 02:33:00;;;;;;;82.47;37.80;;;7.40;99.90;;;;;;5011482;28;20986;-74
2023/04/21 02:35:27;;;;;;;83.03;38.57;;;7.40;99.90;;;;;;5012060;28;20453;-74
2023/04/21 02:37:54;;;;;;;80.77;38.83;;;7.40;99.90;;;;;;5012237;28;20466;-74
2023/04/21 02:40:21;;;;;;;85.07;39.23;;;7.40;99.90;;;;;;5011752;28;20472;-74
2023/04/21 02:42:47;;;;;;;81.83;37.53;;;7.40;99.90;;;;;;5011404;28;20830;-74
2023/04/21 02:45:14;;;;;;;83.93;40.13;;;7.50;99.90;;;;;;5010900;28;20462;-74
2023/04/21 02:47:42;;;;;;;81.70;40.00;;;7.40;99.90;;;;;;5012013;28;20451;-74
2023/04/21 02:50:09;;;;;;;90.23;39.83;;;7.40;99.90;;;;;;5003821;28;20964;-74
2023/04/21 02:52:37;;;;;;;78.17;38.60;;;7.40;99.90;;;;;;5008329;28;20463;-74
2023/04/21 02:55:03;;;;;;;83.10;38.57;;;7.50;99.90;;;;;;5000445;28;20498;-73
2023/04/21 02:57:30;;;;;;;85.30;39.83;;;7.50;99.90;;;;;;5004662;28;20455;-74
2023/04/21 02:59:56;;;;;;;85.43;41.03;;;7.50;99.90;;;;;;5011640;28;20467;-74
2023/04/21 03:02:23;;;;;;;93.10;41.03;;;7.50;99.90;;;;;;5011379;28;20927;-74
2023/04/21 03:04:52;;;;;;;79.67;39.53;;;7.50;99.90;;;;;;5006975;28;20512;-74
2023/04/21 03:07:18;;;;;;;80.97;39.47;;;7.50;99.90;;;;;;5008240;28;20546;-74
2023/04/21 03:09:45;;;;;;;81.13;37.43;;;7.50;99.90;;;;;;5010672;28;20478;-73
2023/04/21 03:12:12;;;;;;;84.73;38.60;;;7.60;99.90;;;;;;5011575;28;20497;-74
2023/04/21 03:14:38;;;;;;;82.67;39.00;;;7.60;99.90;;;;;;5011083;28;20447;-74
2023/04/21 03:17:05;;;;;;;79.40;38.73;;;7.60;99.90;;;;;;5011523;28;20459;-73
2023/04/21 03:19:31;;;;;;;76.37;38.33;;;7.60;99.90;;;;;;5005608;28;20479;-74
2023/04/21 03:22:00;;;;;;;84.10;39.30;;;7.70;99.90;;;;;;5011327;28;20541;-73
2023/04/21 03:24:26;;;;;;;83.37;39.80;;;7.70;99.90;;;;;;5010643;28;20946;-73
2023/04/21 03:26:54;;;;;;;88.83;41.13;;;7.70;99.90;;;;;;5011239;28;20509;-74
2023/04/21 03:29:20;;;;;;;84.07;36.43;;;7.70;99.90;;;;;;5005413;28;20562;-74
2023/04/21 03:31:47;;;;;;;79.27;38.30;;;7.70;99.90;;;;;;5010965;28;21064;-74
2023/04/21 03:34:14;;;;;;;74.67;36.13;;;7.80;99.90;;;;;;5010996;28;20455;-74
2023/04/21 03:36:40;;;;;;;79.90;38.10;;;7.80;99.90;;;;;;5010212;28;20522;-74
2023/04/21 03:39:08;;;;;;;74.30;36.90;;;7.80;99.90;;;;;;5008194;28;20999;-74
2023/04/21 03:41:35;;;;;;;72.67;37.13;;;7.80;99.90;;;;;;5002809;28;20457;-75
2023/04/21 03:44:02;;;;;;;73.43;36.20;;;7.80;99.90;;;;;;5007644;28;20510;-74
2023/04/21 03:46:28;;;;;;;72.53;37.67;;;7.80;99.90;;;;;;5006309;28;20788;-74
2023/04/21 03:48:55;;;;;;;82.83;38.70;;;7.90;99.90;;;;;;5010821;28;20474;-74
2023/04/21 03:51:21;;;;;;;73.43;36.27;;;7.90;99.90;;;;;;5010530;28;20557;-74
2023/04/21 03:53:48;;;;;;;67.60;36.27;;;7.90;99.90;;;;;;5010855;28;20460;-74
2023/04/21 03:56:16;;;;;;;69.20;35.40;;;7.90;99.90;;;;;;5010955;28;20943;-74
2023/04/21 03:58:42;;;;;;;72.80;38.57;;;7.90;99.90;;;;;;5010215;28;20505;-74
2023/04/21 04:01:09;;;;;;;69.40;36.03;;;7.90;99.90;;;;;;5002538;28;20517;-74
2023/04/21 04:03:36;;;;;;;78.43;36.00;;;7.90;99.90;;;;;;5002092;28;20454;-74
2023/04/21 04:06:03;;;;;;;70.50;35.90;;;7.90;99.90;;;;;;5010859;28;20467;-75
2023/04/21 04:08:29;;;;;;;73.47;38.10;;;7.90;99.90;;;;;;5010314;28;20962;-75
2023/04/21 04:10:56;;;;;;;72.10;35.50;;;7.90;99.90;;;;;;5010561;28;20545;-74
2023/04/21 04:13:25;;;;;;;81.30;36.47;;;7.90;99.90;;;;;;5009707;28;20991;-74
2023/04/21 04:15:52;;;;;;;77.20;37.23;;;7.90;99.90;;;;;;5010600;28;20481;-74
2023/04/21 04:18:18;;;;;;;76.97;36.90;;;7.90;99.90;;;;;;5011022;28;20883;-74
2023/04/21 04:20:45;;;;;;;73.03;36.90;;;7.90;99.90;;;;;;5010301;28;20475;-75
2023/04/21 04:23:12;;;;;;;77.10;37.57;;;7.90;99.90;;;;;;5010651;28;20459;-74
2023/04/21 04:25:39;;;;;;;81.67;37.90;;;7.90;99.90;;;;;;5010077;28;21009;-74
2023/04/21 04:28:06;;;;;;;78.00;37.27;;;7.90;99.90;;;;;;5007043;28;20455;-74
2023/04/21 04:30:34;;;;;;;69.63;36.03;;;7.90;99.90;;;;;;4999581;28;20474;-74
2023/04/21 04:33:01;;;;;;;79.47;38.90;;;7.90;99.90;;;;;;5009625;28;20451;-74
2023/04/21 04:35:27;;;;;;;84.63;38.70;;;7.90;99.90;;;;;;5006650;28;20458;-72
2023/04/21 04:37:55;;;;;;;81.40;36.43;;;7.90;99.90;;;;;;4995354;28;20447;-72
2023/04/21 04:40:22;;;;;;;75.90;38.37;;;7.90;99.90;;;;;;5010025;28;21033;-72
2023/04/21 04:42:50;;;;;;;82.87;39.70;;;7.90;99.90;;;;;;5009095;28;20455;-72
2023/04/21 04:45:20;;;;;;;80.27;36.00;;;7.90;99.90;;;;;;5009577;28;20577;-72
2023/04/21 04:47:49;;;;;;;75.93;37.03;;;7.90;99.90;;;;;;5007156;28;20448;-72
2023/04/21 04:50:15;;;;;;;86.20;38.77;;;7.90;99.90;;;;;;5006161;28;20525;-72
2023/04/21 04:52:45;;;;;;;85.20;39.47;;;7.90;99.90;;;;;;5010083;28;20501;-72
2023/04/21 04:55:12;;;;;;;85.40;39.67;;;7.90;99.90;;;;;;5009995;28;20510;-72
2023/04/21 04:57:39;;;;;;;90.50;39.60;;;7.90;99.90;;;;;;4999978;28;20810;-73
2023/04/21 05:00:09;;;;;;;88.77;40.40;;;7.90;99.90;;;;;;5010069;28;21071;-72
2023/04/21 05:02:36;;;;;;;94.50;42.73;;;7.90;99.90;;;;;;5008898;28;20463;-72
2023/04/21 05:05:06;;;;;;;92.30;40.60;;;7.90;99.90;;;;;;5010159;28;20517;-74
2023/04/21 05:07:33;;;;;;;93.70;40.60;;;7.90;99.90;;;;;;5008581;28;20549;-72
2023/04/21 05:09:59;;;;;;;107.07;42.13;;;7.90;99.90;;;;;;5002833;28;20532;-72
2023/04/21 05:12:26;;;;;;;92.73;41.97;;;7.90;99.90;;;;;;4999382;28;20491;-72
2023/04/21 05:14:53;;;;;;;100.17;41.20;;;7.90;99.90;;;;;;5006057;28;20550;-72
2023/04/21 05:17:19;;;;;;;94.07;40.40;;;8.00;99.90;;;;;;5009854;28;20509;-72
2023/04/21 05:19:46;;;;;;;91.23;40.00;;;8.10;99.90;;;;;;5010143;28;20875;-72
2023/04/21 05:22:14;;;;;;;91.27;39.97;;;8.10;99.90;;;;;;5005801;28;20456;-72
2023/04/21 05:24:41;;;;;;;90.10;41.83;;;8.10;99.90;;;;;;5011697;28;20868;-72
2023/04/21 05:27:08;;;;;;;89.40;41.23;;;8.10;99.90;;;;;;5010342;28;20839;-72
2023/04/21 05:29:35;;;;;;;92.30;41.20;;;8.20;99.90;;;;;;5011330;28;20479;-72
2023/04/21 05:32:01;;;;;;;90.53;40.30;;;8.20;99.90;;;;;;5013155;28;20487;-70
2023/04/21 05:34:28;;;;;;;95.47;41.30;;;8.20;99.90;;;;;;5006268;28;20517;-71
2023/04/21 05:36:55;;;;;;;87.23;40.37;;;8.20;99.90;;;;;;5008550;28;20467;-71
2023/04/21 05:39:22;;;;;;;86.33;40.00;;;8.30;99.90;;;;;;5012492;28;20526;-71
2023/04/21 05:41:49;;;;;;;89.53;39.90;;;8.30;99.90;;;;;;5005092;28;20451;-71
2023/04/21 05:44:16;;;;;;;83.85;40.90;;;8.30;99.90;;;;;;5012132;28;20449;-68
2023/04/21 05:46:43;;;;;;;69.13;35.10;;;8.50;99.90;;;;;;5008043;28;20692;-70
2023/04/21 05:49:10;;;;;;;71.13;40.15;;;8.90;99.90;;;;;;5011635;28;20438;-71
2023/04/21 05:51:36;;;;;;;72.00;37.57;;;9.20;99.90;;;;;;5012506;28;20278;-70
2023/04/21 05:54:03;;;;;;;70.93;36.63;;;9.20;99.90;;;;;;5012604;28;20943;-71
2023/04/21 05:56:31;;;;;;;73.33;37.10;;;9.20;99.90;;;;;;5012582;28;20529;-70
2023/04/21 05:58:57;;;;;;;78.33;38.83;;;9.10;99.90;;;;;;5012498;28;20999;-70
2023/04/21 06:01:24;;;;;;;74.17;37.27;;;9.00;99.90;;;;;;5010203;28;20505;-70
2023/04/21 06:03:51;;;;;;;78.87;37.70;;;8.90;99.90;;;;;;5004605;28;20459;-70
2023/04/21 06:06:17;;;;;;;75.40;37.20;;;8.90;99.90;;;;;;5012364;28;20455;-70
2023/04/21 06:08:44;;;;;;;80.90;39.03;;;8.80;99.90;;;;;;5009224;28;20514;-70
2023/04/21 06:11:11;;;;;;;79.67;39.10;;;8.80;99.90;;;;;;5007128;28;20505;-72
2023/04/21 06:13:39;;;;;;;74.23;37.50;;;8.80;99.90;;;;;;5009156;28;20970;-70
2023/04/21 06:16:06;;;;;;;77.70;39.50;;;8.80;99.90;;;;;;5012391;28;21106;-70
2023/04/21 06:18:32;;;;;;;82.57;39.60;;;8.80;99.90;;;;;;5008106;28;20517;-70
2023/04/21 06:20:59;;;;;;;71.80;37.03;;;8.80;99.90;;;;;;5017908;28;20548;-70
2023/04/21 06:23:25;;;;;;;77.17;37.53;;;8.70;99.90;;;;;;5017371;28;20455;-71
2023/04/21 06:26:03;;;;;;;72.23;38.27;;;8.70;99.90;;;;;;5018074;28;20454;-70
2023/04/21 06:28:30;;;;;;;75.67;37.60;;;8.80;99.90;;;;;;5018192;28;20538;-69
2023/04/21 06:30:58;;;;;;;72.00;36.60;;;8.80;99.90;;;;;;5015329;28;21253;-70
2023/04/21 06:33:25;;;;;;;81.77;39.30;;;8.80;99.90;;;;;;5017223;28;20912;-71
2023/04/21 06:35:52;;;;;;;84.97;40.67;;;8.80;99.90;;;;;;5018219;28;20485;-70
2023/04/21 06:38:19;;;;;;;76.13;37.77;;;8.80;99.90;;;;;;5017569;28;21226;-70
2023/04/21 06:40:46;;;;;;;91.70;40.80;;;8.80;99.90;;;;;;5017258;28;20467;-70
2023/04/21 06:43:12;;;;;;;85.77;40.57;;;8.90;99.90;;;;;;5017937;28;20486;-70
2023/04/21 06:45:39;;;;;;;88.73;39.73;;;8.90;99.90;;;;;;5016756;28;21695;-69
2023/04/21 06:48:07;;;;;;;88.20;44.08;;;8.90;99.90;;;;;;5015898;28;20515;-69
2023/04/21 06:50:34;;;;;;;100.33;46.60;;;8.90;99.90;;;;;;5017202;28;20236;-69
2023/04/21 06:53:00;;;;;;;83.97;41.50;;;8.90;99.90;;;;;;5014626;28;20493;-69
2023/04/21 06:55:27;;;;;;;87.10;40.10;;;9.00;99.90;;;;;;5013895;28;20493;-69
2023/04/21 06:57:54;;;;;;;82.90;39.60;;;9.00;99.90;;;;;;5012668;28;20995;-70
2023/04/21 07:00:21;;;;;;;81.73;41.37;;;9.00;99.90;;;;;;5015468;28;21596;-69
2023/04/21 07:02:48;;;;;;;91.40;40.10;;;9.10;99.90;;;;;;5014827;28;20455;-69
2023/04/21 07:05:16;;;;;;;87.50;40.83;;;9.20;99.90;;;;;;5014364;28;20455;-69
2023/04/21 07:07:42;;;;;;;86.20;41.43;;;9.20;99.90;;;;;;5016096;28;20458;-69
2023/04/21 07:10:10;;;;;;;84.80;40.27;;;9.20;99.90;;;;;;5015941;28;20526;-69
2023/04/21 07:12:36;;;;;;;76.60;37.90;;;9.30;99.90;;;;;;5013702;28;21077;-70
2023/04/21 07:15:04;;;;;;;78.90;40.57;;;9.30;99.90;;;;;;5015051;28;20450;-70
2023/04/21 07:17:30;;;;;;;82.97;40.87;;;9.40;99.90;;;;;;5014776;28;20454;-70
2023/04/21 07:19:57;;;;;;;83.60;39.73;;;9.40;99.90;;;;;;5014901;28;20475;-70
2023/04/21 07:22:25;;;;;;;78.57;38.90;;;9.40;99.90;;;;;;5015429;28;20506;-70
2023/04/21 07:24:51;;;;;;;87.67;41.07;;;9.40;99.90;;;;;;5016497;28;22405;-70
2023/04/21 07:27:18;;;;;;;82.77;40.80;;;9.40;99.90;;;;;;5016149;28;20513;-70
2023/04/21 07:29:45;;;;;;;84.47;41.10;;;9.40;99.90;;;;;;5015904;28;20478;-70
2023/04/21 07:32:12;;;;;;;83.07;40.60;;;9.50;99.90;;;;;;5015606;28;20490;-70
2023/04/21 07:34:38;;;;;;;79.03;40.37;;;9.50;99.90;;;;;;5013990;28;20872;-69
2023/04/21 07:37:05;;;;;;;78.50;39.40;;;9.60;99.90;;;;;;5014709;28;20831;-69
2023/04/21 07:39:33;;;;;;;76.63;38.37;;;9.60;99.90;;;;;;5014405;28;20474;-70
2023/04/21 07:42:00;;;;;;;84.63;39.90;;;9.70;99.90;;;;;;5015294;28;20448;-69
2023/04/21 07:44:28;;;;;;;77.07;38.43;;;9.70;99.90;;;;;;5014877;28;20483;-69
2023/04/21 07:46:54;;;;;;;74.00;39.80;;;9.80;99.90;;;;;;5012504;28;20459;-70
2023/04/21 07:49:21;;;;;;;80.80;39.93;;;9.90;99.90;;;;;;5014865;28;20513;-68
2023/04/21 07:51:48;;;;;;;76.60;41.27;;;10.00;99.90;;;;;;5015153;28;20491;-69
2023/04/21 07:54:14;;;;;;;80.90;41.07;;;10.00;99.90;;;;;;5015584;28;20924;-69
2023/04/21 07:56:42;;;;;;;72.83;38.83;;;10.10;99.90;;;;;;5013342;28;20451;-70
2023/04/21 07:59:09;;;;;;;75.20;37.90;;;10.10;99.90;;;;;;5016273;28;20529;-70
2023/04/21 08:01:35;;;;;;;69.33;38.43;;;10.20;99.90;;;;;;5014607;28;20979;-69
2023/04/21 08:04:02;;;;;;;73.43;38.87;;;10.30;99.90;;;;;;5015515;28;21001;-71
2023/04/21 08:06:29;;;;;;;72.13;38.57;;;10.40;99.90;;;;;;5015801;28;20459;-70
2023/04/21 08:08:55;;;;;;;76.73;41.20;;;10.50;99.90;;;;;;5014730;28;20497;-70
2023/04/21 08:11:22;;;;;;;76.57;38.10;;;10.60;99.90;;;;;;5015183;28;20466;-70
2023/04/21 08:13:51;;;;;;;67.93;35.07;;;10.70;99.90;;;;;;5015327;28;20486;-69
2023/04/21 08:16:17;;;;;;;66.10;35.63;;;10.80;99.90;;;;;;5014236;28;20450;-70
2023/04/21 08:18:44;;;;;;;67.30;36.47;;;10.90;99.90;;;;;;5014670;28;20890;-70
2023/04/21 08:21:11;;;;;;;71.27;37.97;;;10.80;99.90;;;;;;5015706;28;20459;-70
2023/04/21 08:23:37;;;;;;;66.63;36.47;;;10.90;99.90;;;;;;5015224;28;20943;-70
2023/04/21 08:26:04;;;;;;;64.43;34.40;;;10.90;99.90;;;;;;5014889;28;20462;-70
2023/04/21 08:28:31;;;;;;;61.30;34.43;;;11.10;99.90;;;;;;5013805;28;20528;-70
2023/04/21 08:30:59;;;;;;;61.60;35.50;;;11.00;99.90;;;;;;5014541;28;20525;-70
2023/04/21 08:33:25;;;;;;;62.10;34.20;;;11.10;99.90;;;;;;5015230;28;20495;-70
2023/04/21 08:35:52;;;;;;;60.50;33.83;;;11.20;99.90;;;;;;5014212;28;20928;-70
2023/04/21 08:38:19;;;;;;;65.70;34.27;;;11.40;99.90;;;;;;5016018;28;20483;-69
2023/04/21 08:40:46;;;;;;;60.77;34.07;;;11.50;99.90;;;;;;5014115;28;20475;-70
2023/04/21 08:43:13;;;;;;;58.03;32.90;;;11.70;99.90;;;;;;5015158;28;20447;-71
2023/04/21 08:45:41;;;;;;;54.60;32.17;;;11.80;99.90;;;;;;5015184;28;20489;-69
2023/04/21 08:48:15;;;;;;;52.67;31.60;;;12.00;99.90;;;;;;5017247;28;20870;-70
2023/04/21 08:50:45;;;;;;;55.00;31.40;;;12.20;99.90;;;;;;5018498;28;20521;-70
2023/04/21 08:53:12;;;;;;;51.30;30.40;;;12.40;99.90;;;;;;5020138;28;21241;-70
2023/04/21 08:55:40;;;;;;;46.10;27.30;;;12.60;99.90;;;;;;5017319;28;21146;-70
2023/04/21 08:58:08;;;;;;;51.87;27.70;;;12.80;99.90;;;;;;5018832;28;20457;-70
2023/04/21 09:00:34;;;;;;;46.07;28.67;;;12.80;99.90;;;;;;5017734;28;20487;-70
2023/04/21 09:03:02;;;;;;;47.87;28.27;;;12.80;99.90;;;;;;5017306;28;20570;-70
2023/04/21 09:05:32;;;;;;;47.40;28.90;;;12.80;99.90;;;;;;5018635;28;20958;-70
2023/04/21 09:08:08;;;;;;;46.30;27.97;;;12.60;99.90;;;;;;5019060;28;20468;-70
2023/04/21 09:10:42;;;;;;;46.03;27.67;;;12.40;99.90;;;;;;5017893;28;21068;-70
2023/04/21 09:13:09;;;;;;;39.30;26.20;;;12.40;99.90;;;;;;5017035;28;20486;-70
2023/04/21 09:15:39;;;;;;;48.93;27.90;;;12.40;99.90;;;;;;5015649;28;20828;-70
2023/04/21 09:18:12;;;;;;;46.87;27.60;;;12.50;99.90;;;;;;5018447;28;21236;-71
2023/04/21 09:20:42;;;;;;;42.10;24.97;;;12.60;99.90;;;;;;5017694;28;20474;-71
2023/04/21 09:23:09;;;;;;;44.70;27.47;;;12.60;99.90;;;;;;5019628;28;20454;-70
2023/04/21 09:25:39;;;;;;;40.97;25.63;;;12.70;99.90;;;;;;5018759;28;20683;-70
2023/04/21 09:28:08;;;;;;;52.57;27.80;;;12.90;99.90;;;;;;5017551;28;20498;-70
2023/04/21 09:30:35;;;;;;;45.30;27.37;;;13.00;99.90;;;;;;5017617;28;20563;-69
2023/04/21 09:33:02;;;;;;;41.90;26.77;;;13.00;99.90;;;;;;5017260;28;20487;-70
2023/04/21 09:35:29;;;;;;;44.40;26.57;;;13.00;99.90;;;;;;5017546;28;20458;-70
2023/04/21 09:37:57;;;;;;;42.60;25.87;;;12.80;99.90;;;;;;5018217;28;20513;-71
2023/04/21 09:40:24;;;;;;;49.83;28.20;;;12.70;99.90;;;;;;5016743;28;20897;-71
2023/04/21 09:42:50;;;;;;;38.13;25.20;;;12.80;99.90;;;;;;5017683;28;20450;-71
2023/04/21 09:45:17;;;;;;;43.87;25.50;;;12.80;99.90;;;;;;5015650;28;20474;-71
2023/04/21 09:47:49;;;;;;;42.10;26.57;;;12.80;99.90;;;;;;5014939;28;20452;-70
2023/04/21 09:50:16;;;;;;;63.23;27.40;;;12.70;99.90;;;;;;5017676;28;20479;-70
2023/04/21 09:52:44;;;;;;;39.50;24.07;;;12.70;99.90;;;;;;5017261;28;20490;-71
2023/04/21 09:55:13;;;;;;;39.27;25.43;;;12.80;99.90;;;;;;5017434;28;20468;-71
2023/04/21 09:57:41;;;;;;;40.50;25.20;;;12.80;99.90;;;;;;5016189;28;21051;-70
2023/04/21 10:00:10;;;;;;;48.93;26.50;;;12.90;99.90;;;;;;5018064;28;20505;-70
2023/04/21 10:02:42;;;;;;;41.30;25.37;;;13.00;99.90;;;;;;5016280;28;20447;-70
2023/04/21 10:05:10;;;;;;;43.87;26.30;;;13.10;99.90;;;;;;5017906;28;20451;-70
2023/04/21 10:07:37;;;;;;;39.33;25.00;;;13.10;99.90;;;;;;5017564;28;20454;-69
2023/04/21 10:10:06;;;;;;;45.13;25.73;;;13.30;99.90;;;;;;5016923;28;20837;-69
2023/04/21 10:12:35;;;;;;;39.00;24.70;;;13.40;99.90;;;;;;5017151;28;20899;-70
2023/04/21 10:15:05;;;;;;;36.33;24.10;;;13.40;99.90;;;;;;5016944;28;20462;-70
2023/04/21 10:17:36;;;;;;;32.20;20.50;;;13.30;99.90;;;;;;5017441;28;20459;-70
2023/04/21 10:20:08;;;;;;;30.47;20.23;;;13.20;99.90;;;;;;5017307;28;20522;-70
2023/04/21 10:22:37;;;;;;;31.33;21.10;;;13.10;99.90;;;;;;5016690;28;21179;-70
2023/04/21 10:25:08;;;;;;;32.43;21.10;;;13.10;99.90;;;;;;5017331;28;20458;-70
2023/04/21 10:27:39;;;;;;;37.00;22.80;;;13.10;99.90;;;;;;5017673;28;20873;-71
2023/04/21 10:30:19;;;;;;;36.23;22.17;;;13.00;99.90;;;;;;5016570;28;20475;-70
2023/04/21 10:32:46;;;;;;;37.90;22.17;;;12.90;99.90;;;;;;5016583;28;21004;-70
2023/04/21 10:35:15;;;;;;;40.23;22.67;;;12.90;99.90;;;;;;5016627;28;21033;-70
2023/04/21 10:37:43;;;;;;;38.77;22.63;;;13.00;99.90;;;;;;5016509;28;20511;-70
2023/04/21 10:40:35;;;;;;;35.23;22.17;;;13.00;99.90;;;;;;5017646;28;20910;-70
2023/04/21 10:43:04;;;;;;;33.00;21.93;;;13.20;99.90;;;;;;5014966;28;20485;-70
2023/04/21 10:45:31;;;;;;;33.10;20.87;;;13.40;99.90;;;;;;5013121;28;20451;-70
2023/04/21 10:48:01;;;;;;;30.90;21.20;;;13.60;99.90;;;;;;5009345;28;20454;-70
2023/04/21 10:50:29;;;;;;;30.13;21.37;;;13.80;99.90;;;;;;5008149;28;20481;-70
2023/04/21 10:52:59;;;;;;;33.67;19.60;;;14.00;99.90;;;;;;5010918;28;20490;-70
2023/04/21 10:55:27;;;;;;;32.27;20.57;;;14.30;99.90;;;;;;5010809;28;20459;-71
2023/04/21 10:57:54;;;;;;;30.27;19.87;;;14.60;99.90;;;;;;5003170;28;20803;-70
2023/04/21 11:00:24;;;;;;;26.90;19.03;;;14.90;99.90;;;;;;5010925;28;20525;-70
2023/04/21 11:02:58;;;;;;;27.30;19.00;;;15.00;99.90;;;;;;4999579;28;20452;-70
2023/04/21 11:05:30;;;;;;;28.37;19.13;;;14.90;99.90;;;;;;5010774;28;20450;-71
2023/04/21 11:08:18;;;;;;;30.57;21.13;;;14.80;99.90;;;;;;5010349;28;20473;-70
2023/04/21 11:10:53;;;;;;;31.20;20.07;;;14.70;99.90;;;;;;4997278;28;20483;-70
2023/04/21 11:13:25;;;;;;;29.17;19.30;;;14.70;99.90;;;;;;5010545;28;21024;-70
2023/04/21 11:16:10;;;;;;;29.87;19.97;;;14.70;99.90;;;;;;5009015;28;20463;-70
2023/04/21 11:18:39;;;;;;;27.07;19.00;;;14.70;99.90;;;;;;4997056;28;20460;-70
2023/04/21 11:21:18;;;;;;;28.03;17.27;;;14.60;99.90;;;;;;5008367;28;20888;-69
2023/04/21 11:23:50;;;;;;;25.50;17.80;;;14.60;99.90;;;;;;5002730;28;20463;-71
2023/04/21 11:26:18;;;;;;;25.90;17.40;;;14.50;99.90;;;;;;5010139;28;20947;-70
2023/04/21 11:28:49;;;;;;;26.87;16.80;;;14.50;99.90;;;;;;5009769;28;20458;-70
2023/04/21 11:31:17;;;;;;;25.23;17.47;;;14.70;99.90;;;;;;5009140;28;20462;-70
2023/04/21 11:33:44;;;;;;;25.07;17.20;;;14.90;99.90;;;;;;5009410;28;20486;-70
2023/04/21 11:36:10;;;;;;;27.80;17.53;;;15.10;99.90;;;;;;4999784;28;20897;-70
2023/04/21 11:38:39;;;;;;;25.83;17.30;;;15.20;99.90;;;;;;5009109;28;20795;-70
2023/04/21 11:41:05;;;;;;;27.73;16.90;;;15.30;99.90;;;;;;5007862;28;20458;-70
2023/04/21 11:43:33;;;;;;;25.20;16.67;;;15.20;99.90;;;;;;5010676;28;20455;-70
2023/04/21 11:46:12;;;;;;;25.70;17.03;;;15.00;99.90;;;;;;5003451;28;20447;-70
2023/04/21 11:48:40;;;;;;;25.40;16.03;;;14.80;99.90;;;;;;5001746;28;20457;-70
2023/04/21 11:51:13;;;;;;;24.30;17.63;;;14.70;99.90;;;;;;5004006;28;20459;-70
2023/04/21 11:53:40;;;;;;;27.00;17.20;;;14.50;99.90;;;;;;5009367;28;20844;-70
2023/04/21 11:56:07;;;;;;;26.73;18.00;;;14.50;99.90;;;;;;5008912;28;20876;-70
2023/04/21 11:58:34;;;;;;;24.40;17.70;;;14.50;99.90;;;;;;5010294;28;20513;-70
2023/04/21 12:01:07;;;;;;;27.80;17.90;;;14.40;99.90;;;;;;5009265;28;20452;-70
2023/04/21 12:03:34;;;;;;;23.50;16.70;;;14.50;99.90;;;;;;5008978;28;20513;-70
2023/04/21 12:06:02;;;;;;;31.90;18.00;;;14.50;99.90;;;;;;5009598;28;20537;-71
2023/04/21 12:08:29;;;;;;;28.10;17.27;;;14.70;99.90;;;;;;5009739;28;20451;-70
2023/04/21 12:10:58;;;;;;;25.73;16.87;;;14.70;99.90;;;;;;5006254;28;20529;-71
2023/04/21 12:13:26;;;;;;;24.57;17.20;;;14.80;99.90;;;;;;5006134;28;20491;-70
2023/04/21 12:15:53;;;;;;;23.83;16.57;;;14.80;99.90;;;;;;5008147;28;20878;-70
2023/04/21 12:18:20;;;;;;;27.57;17.80;;;14.70;99.90;;;;;;5009117;28;20954;-70
2023/04/21 12:20:50;;;;;;;22.27;16.90;;;14.50;99.90;;;;;;5009047;28;20511;-70
2023/04/21 12:23:18;;;;;;;23.60;17.03;;;14.50;99.90;;;;;;5009858;28;20493;-70
2023/04/21 12:25:46;;;;;;;28.47;18.50;;;14.50;99.90;;;;;;5012828;28;20463;-69
2023/04/21 12:28:15;;;;;;;25.70;18.17;;;14.50;99.90;;;;;;5013664;28;20454;-70
2023/04/21 12:30:42;;;;;;;28.23;17.70;;;14.60;99.90;;;;;;5016597;28;21014;-70
2023/04/21 12:33:09;;;;;;;27.67;18.50;;;14.70;99.90;;;;;;5017243;28;20458;-70
2023/04/21 12:35:35;;;;;;;26.80;17.27;;;14.80;99.90;;;;;;5016435;28;20462;-70